Time;durP1;ratioP1;P1;durP2;ratioP2;P2;SDS_P1;SDS_P2;PMS_P1;PMS_P2;Temp;Humidity;BMP_temperature;BMP_pressure;BME280_temperature;BME280_humidity;BME280_pressure;Samples;Min_cycle;Max_cycle;Signal;HPM_P1;HPM_P2
2022/01/03 00:00:08;;;;;;;42.08;19.95;;;17.70;70.10;;;;;;4989045;28;20022;-75
2022/01/03 00:02:33;;;;;;;40.13;20.48;;;17.70;70.00;;;;;;4988914;28;20049;-75
2022/01/03 00:04:59;;;;;;;37.97;18.92;;;17.70;70.10;;;;;;4989093;28;20393;-75
2022/01/03 00:07:27;;;;;;;38.90;19.67;;;17.70;70.00;;;;;;4990031;28;20031;-75
2022/01/03 00:09:53;;;;;;;39.47;18.58;;;17.70;69.90;;;;;;4989802;28;20026;-75
2022/01/03 00:12:21;;;;;;;35.95;18.08;;;17.70;69.90;;;;;;4990560;28;20064;-75
2022/01/03 00:14:49;;;;;;;36.05;17.98;;;17.70;69.80;;;;;;4990012;28;20397;-76
2022/01/03 00:17:14;;;;;;;34.65;17.98;;;17.70;69.80;;;;;;4991588;28;20080;-75
2022/01/03 00:19:40;;;;;;;35.08;17.60;;;17.60;69.70;;;;;;4991824;28;20030;-76
2022/01/03 00:22:07;;;;;;;37.08;18.42;;;17.70;69.80;;;;;;4990905;28;20120;-75
2022/01/03 00:24:36;;;;;;;34.15;17.00;;;17.70;69.80;;;;;;4991986;28;20359;-75
2022/01/03 00:27:08;;;;;;;39.85;18.00;;;17.70;69.80;;;;;;4989452;28;20018;-76
2022/01/03 00:29:50;;;;;;;32.60;16.20;;;17.60;69.70;;;;;;4971971;28;20089;-75
2022/01/03 00:32:15;;;;;;;33.33;15.93;;;17.70;69.70;;;;;;4988530;28;20085;-75
2022/01/03 00:34:41;;;;;;;32.22;16.70;;;17.60;69.60;;;;;;4992742;28;20038;-75
2022/01/03 00:37:08;;;;;;;31.17;16.38;;;17.60;69.60;;;;;;4991930;28;20104;-75
2022/01/03 00:39:37;;;;;;;30.05;15.15;;;17.60;69.60;;;;;;4992204;28;20473;-76
2022/01/03 00:42:04;;;;;;;31.92;15.43;;;17.60;69.50;;;;;;4991490;28;20054;-75
2022/01/03 00:44:31;;;;;;;30.50;15.20;;;17.60;69.60;;;;;;4991783;28;20045;-75
2022/01/03 00:46:57;;;;;;;30.30;15.63;;;17.60;69.50;;;;;;4991468;28;20397;-76
2022/01/03 00:49:23;;;;;;;28.13;15.07;;;17.60;69.50;;;;;;4992486;28;20030;-75
2022/01/03 00:51:49;;;;;;;31.67;15.73;;;17.60;69.50;;;;;;4991471;28;20030;-75
2022/01/03 00:54:15;;;;;;;28.85;14.23;;;17.60;69.40;;;;;;4990982;28;20037;-75
2022/01/03 00:56:47;;;;;;;24.75;14.00;;;17.60;69.40;;;;;;4991611;28;20018;-76
2022/01/03 00:59:15;;;;;;;31.02;14.05;;;17.60;69.30;;;;;;4991195;28;20038;-75
2022/01/03 01:01:48;;;;;;;28.52;14.73;;;17.60;69.30;;;;;;4991001;28;20100;-76
2022/01/03 01:04:15;;;;;;;27.40;13.13;;;17.60;69.30;;;;;;4991715;28;20031;-75
2022/01/03 01:06:41;;;;;;;27.85;13.90;;;17.50;69.30;;;;;;4991046;28;20398;-75
2022/01/03 01:09:09;;;;;;;28.27;13.40;;;17.50;69.20;;;;;;4991244;28;20056;-75
2022/01/03 01:11:39;;;;;;;28.65;13.23;;;17.50;69.20;;;;;;4991789;28;20036;-75
2022/01/03 01:14:05;;;;;;;26.60;12.85;;;17.50;69.20;;;;;;4991214;28;20026;-75
2022/01/03 01:16:30;;;;;;;26.80;13.98;;;17.50;69.20;;;;;;4991297;28;20041;-75
2022/01/03 01:18:56;;;;;;;26.52;12.80;;;17.50;69.10;;;;;;4991828;28;20030;-75
2022/01/03 01:21:23;;;;;;;25.90;13.02;;;17.50;69.10;;;;;;4991195;28;20041;-75
2022/01/03 01:23:50;;;;;;;26.23;12.60;;;17.50;69.00;;;;;;4990812;28;20022;-75
2022/01/03 01:29:05;;;;;;;26.38;12.77;;;17.50;69.00;;;;;;4991503;28;20038;-76
2022/01/03 01:31:35;;;;;;;25.63;12.10;;;17.50;69.00;;;;;;4973667;28;20027;-76
2022/01/03 01:34:03;;;;;;;24.50;12.57;;;17.50;69.00;;;;;;4991044;28;20026;-75
2022/01/03 01:36:29;;;;;;;24.33;12.10;;;17.50;68.90;;;;;;4991960;28;20059;-76
2022/01/03 01:39:04;;;;;;;22.05;11.80;;;17.50;69.00;;;;;;4991140;28;20030;-75
2022/01/03 01:41:30;;;;;;;23.92;11.57;;;17.50;68.90;;;;;;4991597;28;20034;-75
2022/01/03 01:44:00;;;;;;;24.63;11.85;;;17.50;68.90;;;;;;4991148;28;20034;-76
2022/01/03 01:46:28;;;;;;;23.67;11.32;;;17.40;68.90;;;;;;4991419;28;20097;-76
2022/01/03 01:48:54;;;;;;;24.15;10.80;;;17.50;68.80;;;;;;4992398;28;20030;-76
2022/01/03 01:51:23;;;;;;;21.90;11.18;;;17.40;68.90;;;;;;4991854;28;20038;-75
2022/01/03 01:53:52;;;;;;;19.15;10.10;;;17.50;68.80;;;;;;4991263;28;20030;-75
2022/01/03 01:56:24;;;;;;;20.38;10.68;;;17.40;68.80;;;;;;4991323;28;20026;-76
2022/01/03 01:59:09;;;;;;;20.38;10.60;;;17.40;68.70;;;;;;4990437;28;20046;-76
2022/01/03 02:02:02;;;;;;;22.33;10.55;;;17.40;68.60;;;;;;4990490;28;20057;-74
2022/01/03 02:04:46;;;;;;;22.88;10.23;;;17.40;68.60;;;;;;4990321;28;20034;-74
2022/01/03 02:07:26;;;;;;;19.83;10.50;;;17.40;68.70;;;;;;4990864;28;20034;-74
2022/01/03 02:10:08;;;;;;;22.83;10.77;;;17.40;68.70;;;;;;4990503;28;20802;-74
2022/01/03 02:12:42;;;;;;;21.77;10.38;;;17.40;68.60;;;;;;4990567;28;20030;-74
2022/01/03 02:15:14;;;;;;;20.92;10.27;;;17.40;68.60;;;;;;4990018;28;20501;-74
2022/01/03 02:17:44;;;;;;;20.87;9.53;;;17.40;68.50;;;;;;4990041;28;20026;-76
2022/01/03 02:20:16;;;;;;;18.95;9.82;;;17.40;68.70;;;;;;4990020;28;20034;-76
2022/01/03 02:22:43;;;;;;;18.58;9.02;;;17.40;68.50;;;;;;4990044;28;20056;-76
2022/01/03 02:25:12;;;;;;;19.13;9.52;;;17.40;68.50;;;;;;4990049;28;20950;-76
2022/01/03 02:27:38;;;;;;;19.55;9.30;;;17.40;68.50;;;;;;4989761;28;20030;-76
2022/01/03 02:30:06;;;;;;;20.58;9.35;;;17.40;68.50;;;;;;4989982;28;20033;-76
2022/01/03 02:32:31;;;;;;;18.83;9.23;;;17.40;68.50;;;;;;4990084;28;20031;-76
2022/01/03 02:34:57;;;;;;;19.27;9.40;;;17.30;68.40;;;;;;4990529;28;20101;-75
2022/01/03 02:37:23;;;;;;;19.23;8.98;;;17.40;68.40;;;;;;4989822;28;20041;-76
2022/01/03 02:39:50;;;;;;;16.63;9.00;;;17.40;68.30;;;;;;4989685;28;20037;-76
2022/01/03 02:42:20;;;;;;;19.13;9.18;;;17.30;68.30;;;;;;4989688;28;20069;-76
2022/01/03 02:44:46;;;;;;;16.75;8.98;;;17.30;68.30;;;;;;4989589;28;20078;-76
2022/01/03 02:47:12;;;;;;;19.98;9.15;;;17.30;68.30;;;;;;4989494;28;20038;-76
2022/01/03 02:49:38;;;;;;;16.77;9.00;;;17.30;68.20;;;;;;4988693;28;20037;-76
2022/01/03 02:52:03;;;;;;;17.55;9.18;;;17.30;68.30;;;;;;4988159;28;20592;-76
2022/01/03 02:54:29;;;;;;;20.23;9.45;;;17.30;68.30;;;;;;4989081;28;20030;-76
2022/01/03 02:56:56;;;;;;;18.88;8.75;;;17.30;68.20;;;;;;4987835;28;20477;-76
2022/01/03 02:59:22;;;;;;;16.92;8.52;;;17.30;68.20;;;;;;4988613;28;20030;-76
2022/01/03 03:01:48;;;;;;;15.10;7.93;;;17.30;68.20;;;;;;4988255;28;20132;-76
2022/01/03 03:04:15;;;;;;;17.45;8.32;;;17.30;68.20;;;;;;4989198;28;20049;-77
2022/01/03 03:06:40;;;;;;;17.55;8.57;;;17.30;68.20;;;;;;4988876;28;20708;-76
2022/01/03 03:09:07;;;;;;;17.17;8.20;;;17.30;68.10;;;;;;4989068;28;20477;-76
2022/01/03 03:11:37;;;;;;;18.65;8.80;;;17.30;68.10;;;;;;4989748;28;20037;-76
2022/01/03 03:14:03;;;;;;;17.02;8.23;;;17.30;68.10;;;;;;4991738;28;20612;-75
2022/01/03 03:16:28;;;;;;;15.48;7.82;;;17.30;68.10;;;;;;4992483;28;20113;-76
2022/01/03 03:18:54;;;;;;;15.98;7.90;;;17.30;68.10;;;;;;4991743;28;20465;-76
2022/01/03 03:21:20;;;;;;;14.45;7.82;;;17.30;68.10;;;;;;4988284;28;20027;-76
2022/01/03 03:23:46;;;;;;;15.32;7.70;;;17.30;68.10;;;;;;4988352;28;20642;-77
2022/01/03 03:26:12;;;;;;;18.55;7.78;;;17.30;68.10;;;;;;4987978;28;20504;-76
2022/01/03 03:28:39;;;;;;;15.18;7.47;;;17.30;68.00;;;;;;4988493;28;20681;-76
2022/01/03 03:31:05;;;;;;;14.93;7.00;;;17.30;68.00;;;;;;4988443;28;20043;-76
2022/01/03 03:33:32;;;;;;;17.85;8.00;;;17.30;68.00;;;;;;4988194;28;20080;-76
2022/01/03 03:35:59;;;;;;;15.13;7.47;;;17.30;68.00;;;;;;4988288;28;20817;-76
2022/01/03 03:38:26;;;;;;;17.02;7.53;;;17.30;67.90;;;;;;4988787;28;20027;-77
2022/01/03 03:41:00;;;;;;;13.88;7.57;;;17.30;68.00;;;;;;4988468;28;20038;-77
2022/01/03 03:43:26;;;;;;;15.27;7.45;;;17.30;67.90;;;;;;4988519;28;20031;-75
2022/01/03 03:45:51;;;;;;;16.30;7.15;;;17.20;67.90;;;;;;4988290;28;20030;-76
2022/01/03 03:48:19;;;;;;;16.73;7.13;;;17.20;67.90;;;;;;4988609;28;20034;-77
2022/01/03 03:50:46;;;;;;;18.42;7.72;;;17.20;67.90;;;;;;4988405;28;20092;-76
2022/01/03 03:53:12;;;;;;;14.40;6.95;;;17.20;67.80;;;;;;4988004;28;20030;-76
2022/01/03 03:55:38;;;;;;;14.77;6.97;;;17.20;67.90;;;;;;4987762;28;20038;-76
2022/01/03 03:58:04;;;;;;;14.45;7.13;;;17.20;67.80;;;;;;4988033;28;20033;-76
2022/01/03 05:28:29;;;;;;;16.70;5.22;;;18.10;66.10;;;;;;4232378;23;20051;-79
2022/01/03 05:30:55;;;;;;;12.95;5.35;;;18.20;65.80;;;;;;4933571;29;20827;-71
2022/01/03 05:33:20;;;;;;;13.93;4.65;;;18.30;65.80;;;;;;4932018;29;20049;-77
2022/01/03 05:35:46;;;;;;;10.73;4.97;;;18.30;65.60;;;;;;4932182;29;20115;-77
2022/01/03 05:38:17;;;;;;;11.93;5.03;;;18.40;65.30;;;;;;4930828;29;20035;-77
2022/01/03 05:40:42;;;;;;;12.40;4.80;;;18.40;65.10;;;;;;4931557;29;20039;-77
2022/01/03 05:43:10;;;;;;;11.43;5.30;;;18.40;65.10;;;;;;4931969;29;20040;-77
2022/01/03 05:45:37;;;;;;;12.52;5.45;;;18.40;65.10;;;;;;4915000;29;20693;-77
2022/01/03 05:48:02;;;;;;;12.27;5.03;;;18.40;65.00;;;;;;4932106;29;20034;-76
2022/01/03 05:50:28;;;;;;;10.40;4.80;;;18.40;64.90;;;;;;4932031;29;20587;-77
2022/01/03 05:52:53;;;;;;;8.20;4.55;;;18.50;64.90;;;;;;4931754;29;20039;-76
2022/01/03 05:55:20;;;;;;;10.88;4.72;;;18.50;64.80;;;;;;4931182;29;20043;-78
2022/01/03 05:57:46;;;;;;;14.40;4.68;;;18.50;64.70;;;;;;4930838;29;20020;-76
2022/01/03 06:00:15;;;;;;;16.30;4.93;;;18.60;65.10;;;;;;4930790;29;20030;-78
2022/01/03 06:02:42;;;;;;;11.02;4.38;;;18.60;65.30;;;;;;4931636;29;20071;-78
2022/01/03 06:05:18;;;;;;;11.02;4.80;;;18.70;65.20;;;;;;4931536;29;20128;-76
2022/01/03 06:07:43;;;;;;;11.15;4.68;;;18.70;65.20;;;;;;4931514;29;20035;-76
2022/01/03 06:10:14;;;;;;;10.82;4.40;;;18.70;65.30;;;;;;4932234;29;20039;-76
2022/01/03 06:12:40;;;;;;;10.85;4.43;;;18.70;65.20;;;;;;4932951;29;20118;-78
2022/01/03 06:15:07;;;;;;;9.55;4.10;;;18.80;65.40;;;;;;4933097;29;20146;-78
2022/01/03 06:17:32;;;;;;;9.65;4.32;;;18.70;65.30;;;;;;4932734;29;20083;-77
2022/01/03 06:19:58;;;;;;;13.07;4.40;;;18.80;65.50;;;;;;4933221;29;20040;-79
2022/01/03 06:22:23;;;;;;;8.68;4.53;;;18.70;65.60;;;;;;4932606;29;20055;-78
2022/01/03 06:24:49;;;;;;;11.30;4.45;;;18.70;65.70;;;;;;4932405;29;20063;-78
2022/01/03 06:27:16;;;;;;;12.10;4.18;;;18.70;65.50;;;;;;4932171;29;20495;-80
2022/01/03 06:29:42;;;;;;;14.10;4.43;;;18.70;65.80;;;;;;4932682;29;20490;-78
2022/01/03 06:32:08;;;;;;;14.80;4.43;;;18.60;65.60;;;;;;4931233;29;20051;-78
2022/01/03 06:34:34;;;;;;;11.05;4.32;;;18.70;65.70;;;;;;4931921;29;20036;-77
2022/01/03 06:36:59;;;;;;;13.27;4.30;;;18.60;65.60;;;;;;4931763;29;20028;-78
2022/01/03 06:39:25;;;;;;;10.35;4.10;;;18.60;65.70;;;;;;4931381;29;20840;-81
2022/01/03 06:41:51;;;;;;;14.18;4.85;;;18.50;65.80;;;;;;4931960;29;20039;-78
2022/01/03 06:44:16;;;;;;;10.45;4.05;;;18.50;65.90;;;;;;4932189;29;20654;-76
2022/01/03 06:46:42;;;;;;;12.95;4.20;;;18.50;66.20;;;;;;4931893;29;20028;-76
2022/01/03 06:49:08;;;;;;;13.05;4.25;;;18.40;66.30;;;;;;4932586;29;20043;-77
2022/01/03 06:51:34;;;;;;;9.48;3.97;;;18.40;66.20;;;;;;4932689;29;20039;-79
2022/01/03 06:54:05;;;;;;;11.00;4.18;;;18.40;66.50;;;;;;4933101;29;20036;-79
2022/01/03 06:56:31;;;;;;;12.63;4.00;;;18.40;66.70;;;;;;4932708;29;20078;-79
2022/01/03 06:58:57;;;;;;;10.20;4.10;;;18.40;66.50;;;;;;4933500;29;20515;-78
2022/01/03 07:01:23;;;;;;;13.40;4.55;;;18.30;66.50;;;;;;4932804;29;20035;-78
2022/01/03 07:03:48;;;;;;;10.82;3.95;;;18.30;66.60;;;;;;4932900;29;20071;-79
2022/01/03 07:06:14;;;;;;;11.95;4.07;;;18.30;66.80;;;;;;4932827;29;20036;-79
2022/01/03 07:08:40;;;;;;;11.70;4.22;;;18.30;67.00;;;;;;4932967;29;20032;-77
2022/01/03 07:11:05;;;;;;;12.32;3.92;;;18.30;66.90;;;;;;4932669;29;20039;-79
2022/01/03 07:13:41;;;;;;;10.93;4.13;;;18.30;68.10;;;;;;4932138;29;20490;-78
2022/01/03 07:18:57;;;;;;;12.02;4.13;;;18.20;66.90;;;;;;4932439;29;20062;-78
2022/01/03 07:21:31;;;;;;;11.73;3.45;;;18.20;67.10;;;;;;4932041;29;20510;-79
2022/01/03 07:23:58;;;;;;;14.23;4.15;;;18.20;67.60;;;;;;4931530;29;20024;-79
2022/01/03 07:26:29;;;;;;;13.15;4.10;;;18.20;67.30;;;;;;4931874;29;20039;-79
2022/01/03 07:28:55;;;;;;;15.95;4.03;;;18.20;67.40;;;;;;4931582;29;20059;-81
2022/01/03 07:31:21;;;;;;;15.63;4.30;;;18.20;67.30;;;;;;4932251;29;20040;-78
2022/01/03 07:33:47;;;;;;;15.77;4.60;;;18.20;67.40;;;;;;4930937;29;20047;-77
2022/01/03 07:36:13;;;;;;;13.80;4.22;;;18.20;67.30;;;;;;4930969;29;20023;-79
2022/01/03 07:38:39;;;;;;;35.42;5.35;;;18.10;67.20;;;;;;4931259;29;20061;-79
2022/01/03 07:41:05;;;;;;;16.67;4.63;;;18.20;67.50;;;;;;4930380;29;20036;-79
2022/01/03 07:43:39;;;;;;;17.95;4.10;;;18.10;67.50;;;;;;4930590;29;20043;-78
2022/01/03 07:46:05;;;;;;;20.95;4.40;;;18.10;67.40;;;;;;4930044;29;20024;-78
2022/01/03 07:48:30;;;;;;;17.98;4.88;;;18.10;67.30;;;;;;4930239;29;20038;-78
2022/01/03 07:50:56;;;;;;;19.48;4.22;;;18.10;67.40;;;;;;4929963;29;20114;-77
2022/01/03 07:53:22;;;;;;;14.95;3.97;;;18.10;67.50;;;;;;4930267;29;20365;-78
2022/01/03 07:55:47;;;;;;;14.98;4.00;;;18.10;67.50;;;;;;4930493;29;20053;-77
2022/01/03 07:58:16;;;;;;;13.88;3.92;;;18.10;67.60;;;;;;4931552;29;20074;-77
2022/01/03 08:00:44;;;;;;;12.68;3.97;;;18.00;67.40;;;;;;4933863;29;20478;-78
2022/01/03 08:03:10;;;;;;;18.02;4.20;;;18.00;67.50;;;;;;4934415;29;20138;-77
2022/01/03 08:05:36;;;;;;;11.88;4.32;;;18.00;67.60;;;;;;4931949;29;20122;-79
2022/01/03 08:08:03;;;;;;;15.00;4.50;;;18.00;67.80;;;;;;4930051;29;20028;-77
2022/01/03 08:10:31;;;;;;;15.52;4.30;;;18.10;67.70;;;;;;4929979;29;20038;-77
2022/01/03 08:12:56;;;;;;;12.45;3.67;;;18.00;67.70;;;;;;4930442;29;20038;-76
2022/01/03 08:15:23;;;;;;;15.57;3.83;;;18.10;67.90;;;;;;4930125;29;20024;-77
2022/01/03 08:17:49;;;;;;;12.07;4.03;;;18.00;68.00;;;;;;4929553;29;20418;-75
2022/01/03 08:20:15;;;;;;;12.52;3.78;;;18.10;68.10;;;;;;4912952;29;20487;-77
2022/01/03 08:22:40;;;;;;;16.30;3.47;;;18.10;68.10;;;;;;4929590;29;20044;-75
2022/01/03 08:25:07;;;;;;;13.00;3.90;;;18.20;68.00;;;;;;4930008;29;20637;-75
2022/01/03 08:27:33;;;;;;;11.77;3.45;;;18.20;67.60;;;;;;4929471;29;20023;-76
2022/01/03 08:29:58;;;;;;;11.13;3.40;;;18.30;67.40;;;;;;4930030;29;20099;-76
2022/01/03 08:32:24;;;;;;;12.85;3.92;;;18.30;67.30;;;;;;4929719;29;20036;-77
2022/01/03 08:34:51;;;;;;;13.48;3.53;;;18.40;67.10;;;;;;4930356;29;20047;-76
2022/01/03 08:37:17;;;;;;;9.80;3.05;;;18.50;66.90;;;;;;4930029;29;20115;-77
2022/01/03 08:39:43;;;;;;;13.07;3.30;;;18.50;66.60;;;;;;4929922;29;20479;-77
2022/01/03 08:42:08;;;;;;;11.48;3.58;;;18.60;66.40;;;;;;4930041;29;20046;-77
2022/01/03 08:44:34;;;;;;;11.35;3.28;;;18.70;66.20;;;;;;4929926;29;20038;-78
2022/01/03 08:46:59;;;;;;;9.75;3.13;;;18.80;66.00;;;;;;4929606;29;20032;-77
2022/01/03 08:49:25;;;;;;;13.13;3.78;;;18.80;65.80;;;;;;4930053;29;20032;-78
2022/01/03 08:51:51;;;;;;;8.60;3.47;;;18.90;65.70;;;;;;4929624;29;20028;-78
2022/01/03 08:54:16;;;;;;;9.93;3.20;;;19.00;65.50;;;;;;4931196;29;20039;-78
2022/01/03 08:56:42;;;;;;;11.48;3.40;;;19.00;65.30;;;;;;4933429;29;20023;-78
2022/01/03 08:59:07;;;;;;;12.57;3.50;;;19.10;65.40;;;;;;4934327;29;20035;-77
2022/01/03 09:01:33;;;;;;;13.48;3.80;;;19.10;65.40;;;;;;4933938;29;20063;-77
2022/01/03 09:03:59;;;;;;;12.93;3.33;;;19.10;65.40;;;;;;4932770;29;20028;-78
2022/01/03 09:06:25;;;;;;;12.93;3.55;;;19.10;65.40;;;;;;4933604;29;20546;-77
2022/01/03 09:08:53;;;;;;;10.80;3.22;;;19.10;65.40;;;;;;4933747;29;20028;-74
2022/01/03 09:11:19;;;;;;;14.05;3.22;;;19.20;65.40;;;;;;4933705;29;20510;-76
2022/01/03 09:13:46;;;;;;;18.60;4.18;;;19.20;65.30;;;;;;4933431;29;20046;-74
2022/01/03 09:16:11;;;;;;;15.02;3.90;;;19.20;65.30;;;;;;4933286;29;20031;-75
2022/01/03 09:18:39;;;;;;;12.68;3.67;;;19.20;65.30;;;;;;4933418;29;20032;-75
2022/01/03 09:21:05;;;;;;;14.85;3.45;;;19.20;65.40;;;;;;4932790;29;20040;-76
2022/01/03 09:23:35;;;;;;;15.88;3.97;;;19.20;65.60;;;;;;4932802;29;20035;-76
2022/01/03 09:28:57;;;;;;;19.60;3.78;;;19.20;65.70;;;;;;4932024;29;20146;-77
2022/01/03 09:31:32;;;;;;;14.60;3.60;;;19.20;65.70;;;;;;4932478;29;20095;-76
2022/01/03 09:34:00;;;;;;;13.20;3.50;;;19.20;65.50;;;;;;4932663;29;20137;-77
2022/01/03 09:36:27;;;;;;;12.48;4.03;;;19.20;65.50;;;;;;4932401;29;20107;-77
2022/01/03 09:38:54;;;;;;;13.88;3.42;;;19.20;65.70;;;;;;4932677;29;20023;-76
2022/01/03 09:41:23;;;;;;;15.65;3.60;;;19.20;65.70;;;;;;4933578;29;20036;-76
2022/01/03 09:44:11;;;;;;;11.70;3.55;;;19.20;65.80;;;;;;4935750;29;20035;-75
2022/01/03 09:46:40;;;;;;;16.95;3.92;;;19.20;65.70;;;;;;4937965;29;20090;-76
2022/01/03 09:49:08;;;;;;;13.77;3.40;;;19.20;65.60;;;;;;4935039;29;20036;-76
2022/01/03 09:51:34;;;;;;;11.43;3.72;;;19.20;65.60;;;;;;4933228;29;20031;-76
2022/01/03 09:54:05;;;;;;;11.02;3.22;;;19.20;65.60;;;;;;4933114;29;20019;-76
2022/01/03 09:56:33;;;;;;;10.77;3.30;;;19.20;65.60;;;;;;4932303;29;20031;-76
2022/01/03 09:59:00;;;;;;;9.70;3.28;;;19.20;65.70;;;;;;4931354;29;20379;-74
2022/01/03 10:01:29;;;;;;;15.32;4.15;;;19.20;65.80;;;;;;4930572;29;20411;-75
2022/01/03 10:03:55;;;;;;;10.77;3.28;;;19.10;65.80;;;;;;4932377;29;20106;-76
2022/01/03 10:06:20;;;;;;;11.68;3.30;;;19.20;65.90;;;;;;4931923;29;20119;-76
2022/01/03 10:08:47;;;;;;;10.95;3.40;;;19.20;65.80;;;;;;4931849;29;20039;-76
2022/01/03 10:11:15;;;;;;;12.43;3.53;;;19.20;65.70;;;;;;4931660;29;20065;-77
2022/01/03 10:13:47;;;;;;;10.95;3.22;;;19.20;65.60;;;;;;4932968;29;20118;-77
2022/01/03 10:16:13;;;;;;;11.63;3.15;;;19.20;65.60;;;;;;4932037;29;20024;-76
2022/01/03 10:18:39;;;;;;;10.40;3.50;;;19.20;65.70;;;;;;4931788;29;20031;-76
2022/01/03 10:21:07;;;;;;;11.57;3.80;;;19.20;65.70;;;;;;4931005;29;20031;-75
2022/01/03 10:23:33;;;;;;;11.25;3.55;;;19.20;65.70;;;;;;4931468;29;20023;-76
2022/01/03 10:26:20;;;;;;;9.07;3.03;;;19.20;65.80;;;;;;4931355;29;20431;-76
2022/01/03 10:28:45;;;;;;;11.23;3.40;;;19.20;65.70;;;;;;4932033;29;20062;-76
2022/01/03 10:31:18;;;;;;;10.80;3.55;;;19.20;65.70;;;;;;4931307;29;20126;-76
2022/01/03 10:33:47;;;;;;;;;;;19.20;65.60;;;;;;4932395;29;20106;-76
2022/01/03 10:36:33;;;;;;;16.85;3.58;;;19.20;66.60;;;;;;4931209;29;20400;-75
2022/01/03 10:39:30;;;;;;;13.25;3.38;;;19.20;65.70;;;;;;4930757;29;20032;-75
2022/01/03 10:42:13;;;;;;;16.65;4.10;;;19.20;65.70;;;;;;4930857;29;20039;-76
2022/01/03 10:44:42;;;;;;;14.38;4.13;;;19.10;65.70;;;;;;4931316;29;20027;-75
2022/01/03 10:47:10;;;;;;;19.38;3.70;;;19.10;65.80;;;;;;4930498;29;20503;-76
2022/01/03 10:49:38;;;;;;;20.15;3.90;;;19.10;65.90;;;;;;4931072;29;20122;-74
2022/01/03 10:52:39;;;;;;;24.48;4.28;;;19.10;66.00;;;;;;4929181;29;20501;-74
2022/01/03 10:55:16;;;;;;;19.90;4.35;;;19.00;66.10;;;;;;4931171;29;20024;-75
2022/01/03 10:57:53;;;;;;;22.83;3.78;;;19.10;66.20;;;;;;4931245;29;20024;-74
2022/01/03 11:00:35;;;;;;;22.25;4.50;;;19.10;66.30;;;;;;4928946;29;20430;-76
2022/01/03 11:03:18;;;;;;;25.35;4.50;;;19.10;67.30;;;;;;4930302;29;20044;-74
2022/01/03 11:05:53;;;;;;;22.40;4.63;;;19.10;66.40;;;;;;4930585;29;20051;-74
2022/01/03 11:11:10;;;;;;;27.42;5.07;;;19.10;66.90;;;;;;4930879;29;20521;-72
2022/01/03 11:13:44;;;;;;;28.58;4.82;;;19.10;66.80;;;;;;4930809;29;20027;-75
2022/01/03 11:16:11;;;;;;;26.50;4.45;;;19.10;66.90;;;;;;4930414;29;20083;-74
2022/01/03 11:18:44;;;;;;;27.73;4.72;;;19.20;66.80;;;;;;4930642;29;20037;-75
2022/01/03 11:21:13;;;;;;;;;;;19.20;66.70;;;;;;4931193;29;20042;-73
2022/01/03 11:23:40;;;;;;;26.58;3.95;;;19.20;66.70;;;;;;4931826;29;19911;-72
2022/01/03 11:26:14;;;;;;;25.75;4.82;;;19.20;66.90;;;;;;4931711;29;20036;-73
2022/01/03 11:28:42;;;;;;;31.58;4.70;;;19.20;67.00;;;;;;4933159;29;20430;-73
2022/01/03 11:31:09;;;;;;;31.52;4.30;;;19.20;67.10;;;;;;4932378;29;20077;-72
2022/01/03 11:33:36;;;;;;;26.17;4.78;;;19.20;67.10;;;;;;4931026;29;20035;-73
2022/01/03 11:36:05;;;;;;;22.83;4.15;;;19.20;67.10;;;;;;4930301;29;20491;-73
2022/01/03 11:38:33;;;;;;;30.02;4.45;;;19.20;67.30;;;;;;4930158;29;20123;-72
2022/01/03 11:41:03;;;;;;;28.65;4.43;;;19.20;67.40;;;;;;4929827;29;20035;-73
2022/01/03 11:43:29;;;;;;;26.33;4.43;;;19.20;67.50;;;;;;4930465;29;20134;-74
2022/01/03 11:45:56;;;;;;;24.95;4.90;;;19.30;67.50;;;;;;4930134;29;20119;-74
2022/01/03 11:48:25;;;;;;;27.38;4.18;;;19.30;67.50;;;;;;4929809;29;20031;-72
2022/01/03 11:50:52;;;;;;;24.35;4.55;;;19.30;67.70;;;;;;4930248;29;20055;-73
2022/01/03 11:53:23;;;;;;;30.48;5.28;;;19.30;67.70;;;;;;4929730;29;20094;-71
2022/01/03 11:56:05;;;;;;;26.13;4.85;;;19.20;67.60;;;;;;4930497;29;20063;-73
2022/01/03 11:58:58;;;;;;;29.48;5.00;;;19.20;67.60;;;;;;4930506;29;20023;-73
2022/01/03 12:04:40;;;;;;;24.27;4.60;;;19.20;67.60;;;;;;4918567;29;20050;-74
2022/01/03 12:07:10;;;;;;;24.67;4.43;;;19.20;67.50;;;;;;4930751;29;20471;-74
2022/01/03 12:09:40;;;;;;;23.90;4.35;;;19.20;67.40;;;;;;4929564;29;20419;-73
2022/01/03 12:12:06;;;;;;;22.92;4.43;;;19.20;67.40;;;;;;4930207;29;20103;-74
2022/01/03 12:14:46;;;;;;;20.92;4.30;;;19.20;67.30;;;;;;4929328;29;20510;-73
2022/01/03 12:17:14;;;;;;;24.17;4.65;;;19.20;67.20;;;;;;4928511;29;20035;-74
2022/01/03 12:19:46;;;;;;;24.83;4.70;;;19.20;66.90;;;;;;4929881;29;20470;-74
2022/01/03 12:22:22;;;;;;;18.33;4.22;;;19.20;66.40;;;;;;4928564;29;20368;-71
2022/01/03 12:24:51;;;;;;;28.20;4.70;;;19.10;66.30;;;;;;4929695;29;20543;-75
2022/01/03 12:27:16;;;;;;;26.90;5.43;;;19.20;66.40;;;;;;4929213;29;20111;-74
2022/01/03 12:32:40;;;;;;;30.77;5.57;;;19.20;66.60;;;;;;4932326;29;20091;-73
2022/01/03 12:35:13;;;;;;;26.02;4.80;;;19.10;66.60;;;;;;4932644;29;20556;-73
2022/01/03 12:37:44;;;;;;;24.70;4.53;;;19.10;66.50;;;;;;4932604;29;20032;-74
2022/01/03 12:40:18;;;;;;;21.38;4.45;;;19.10;66.60;;;;;;4932389;29;20035;-73
2022/01/03 12:42:57;;;;;;;35.75;5.32;;;19.10;67.70;;;;;;4932270;29;20062;-73
2022/01/03 12:45:25;;;;;;;30.90;5.20;;;19.10;66.70;;;;;;4931910;29;20079;-72
2022/01/03 12:47:52;;;;;;;29.25;4.95;;;19.10;66.80;;;;;;4931921;29;20487;-74
2022/01/03 12:50:22;;;;;;;29.70;4.82;;;19.10;66.80;;;;;;4931607;29;20040;-73
2022/01/03 12:52:49;;;;;;;28.00;4.50;;;19.10;66.90;;;;;;4932228;29;20057;-71
2022/01/03 12:55:40;;;;;;;25.55;4.80;;;19.10;66.90;;;;;;4931577;29;20035;-72
2022/01/03 12:58:16;;;;;;;32.25;4.90;;;19.10;66.60;;;;;;4932959;29;20039;-73
2022/01/03 13:00:48;;;;;;;25.05;4.45;;;19.10;66.60;;;;;;4932989;29;20506;-73
2022/01/03 13:03:39;;;;;;;23.90;5.20;;;19.10;66.70;;;;;;4933282;29;20051;-73
2022/01/03 13:06:16;;;;;;;28.02;4.82;;;19.00;66.50;;;;;;4932609;29;20094;-73
2022/01/03 13:08:48;;;;;;;23.25;4.90;;;19.00;66.70;;;;;;4933663;29;20031;-74
2022/01/03 13:11:16;;;;;;;20.50;4.38;;;19.00;66.70;;;;;;4934961;29;20486;-73
2022/01/03 13:13:51;;;;;;;20.92;4.32;;;19.00;66.60;;;;;;4938252;29;20028;-74
2022/01/03 13:16:28;;;;;;;21.75;4.40;;;19.00;66.50;;;;;;4935686;29;20193;-73
2022/01/03 13:19:07;;;;;;;20.33;4.55;;;19.00;66.50;;;;;;4933429;29;20059;-74
2022/01/03 13:21:36;;;;;;;21.92;4.93;;;19.00;66.50;;;;;;4932980;29;20514;-73
2022/01/03 13:24:05;;;;;;;20.23;4.88;;;19.00;66.40;;;;;;4931920;29;20064;-73
2022/01/03 13:26:32;;;;;;;28.15;4.45;;;19.00;66.50;;;;;;4914121;29;20023;-73
2022/01/03 13:29:03;;;;;;;32.38;5.55;;;19.00;66.40;;;;;;4931904;29;20055;-74
2022/01/03 13:31:29;;;;;;;29.80;5.97;;;19.00;66.40;;;;;;4931426;29;20035;-73
2022/01/03 13:34:02;;;;;;;20.42;4.20;;;19.00;66.50;;;;;;4914810;29;20077;-72
2022/01/03 13:36:39;;;;;;;26.52;5.05;;;19.00;66.30;;;;;;4931937;29;20119;-73
2022/01/03 13:39:20;;;;;;;23.83;4.50;;;19.00;66.30;;;;;;4931908;29;20028;-73
2022/01/03 13:41:50;;;;;;;37.83;6.15;;;19.00;66.40;;;;;;4914932;29;20435;-73
2022/01/03 13:45:01;;;;;;;25.85;5.35;;;19.00;66.70;;;;;;4931286;29;20206;-75
2022/01/03 13:50:27;;;;;;;30.52;4.88;;;19.00;66.60;;;;;;4932149;29;20105;-73
2022/01/03 13:52:55;;;;;;;19.05;4.63;;;19.10;66.40;;;;;;4932067;29;20043;-74
2022/01/03 13:55:29;;;;;;;21.20;4.70;;;19.00;66.30;;;;;;4932353;29;20028;-73
2022/01/03 13:58:01;;;;;;;31.73;5.18;;;19.00;66.30;;;;;;4932266;29;20027;-74
2022/01/03 14:00:27;;;;;;;31.52;4.28;;;19.00;66.30;;;;;;4932225;29;20054;-73
2022/01/03 14:02:53;;;;;;;20.35;4.47;;;19.00;66.50;;;;;;4932380;29;20040;-72
2022/01/03 14:05:19;;;;;;;19.95;4.35;;;19.00;66.40;;;;;;4931542;29;20083;-73
2022/01/03 14:08:03;;;;;;;24.88;4.97;;;19.00;66.30;;;;;;4931042;29;20031;-73
2022/01/03 14:10:54;;;;;;;19.67;4.30;;;19.00;66.00;;;;;;4930114;29;20067;-73
2022/01/03 14:13:22;;;;;;;25.58;4.60;;;19.00;66.00;;;;;;4929854;29;20044;-73
2022/01/03 14:16:07;;;;;;;21.73;4.55;;;19.00;66.20;;;;;;4931690;29;20061;-73
2022/01/03 14:18:38;;;;;;;17.27;3.92;;;19.00;65.90;;;;;;4931544;29;20020;-73
2022/01/03 14:21:11;;;;;;;16.85;4.22;;;19.00;65.90;;;;;;4931404;29;20035;-73
2022/01/03 14:23:48;;;;;;;19.27;4.20;;;19.00;65.80;;;;;;4931217;29;20582;-73
2022/01/03 14:26:24;;;;;;;20.85;4.03;;;18.90;65.70;;;;;;4930865;29;20119;-73
2022/01/03 14:28:58;;;;;;;19.13;4.00;;;18.90;65.70;;;;;;4931134;29;20056;-73
2022/01/03 14:32:04;;;;;;;18.63;3.40;;;18.90;65.70;;;;;;4930986;29;20027;-74
2022/01/03 14:34:36;;;;;;;18.55;3.85;;;18.90;65.60;;;;;;4928808;29;20122;-73